createdAt,value
2018-03-01T00:02:13.281Z,52.94
2018-03-01T00:04:40.760Z,52.29
2018-03-01T00:07:08.246Z,53.25
2018-03-01T00:09:35.711Z,51.96
2018-03-01T00:12:03.204Z,52.06
2018-03-01T00:14:30.675Z,52.40
2018-03-01T00:16:58.164Z,51.85
2018-03-01T00:19:25.720Z,52.22
2018-03-01T00:21:53.144Z,52.64
2018-03-01T00:24:20.632Z,52.13
2018-03-01T00:26:48.103Z,51.68
2018-03-01T00:29:15.593Z,51.97
2018-03-01T00:31:43.054Z,51.65
2018-03-01T00:34:10.542Z,51.58
2018-03-01T00:36:38.007Z,51.49
2018-03-01T00:39:05.486Z,51.57
2018-03-01T00:41:32.955Z,51.28
2018-03-01T00:44:00.437Z,51.43
2018-03-01T00:46:27.899Z,51.41
2018-03-01T00:48:55.390Z,51.66
2018-03-01T00:51:22.864Z,51.46
2018-03-01T00:53:50.368Z,51.06
2018-03-01T00:56:17.827Z,51.92
2018-03-01T00:58:45.327Z,51.97
2018-03-01T01:01:12.786Z,51.26
2018-03-01T01:03:40.271Z,51.43
2018-03-01T01:06:07.743Z,51.41
2018-03-01T01:08:35.204Z,51.31
2018-03-01T01:11:02.691Z,51.94
2018-03-01T01:13:30.159Z,51.33
2018-03-01T01:15:57.657Z,50.92
2018-03-01T01:18:25.132Z,51.53
2018-03-01T01:20:52.618Z,51.30
2018-03-01T01:23:20.085Z,51.39
2018-03-01T01:25:47.572Z,51.14
2018-03-01T01:28:15.056Z,51.25
2018-03-01T01:30:42.544Z,52.58
2018-03-01T01:33:12.927Z,50.63
2018-03-01T01:35:42.258Z,50.58
2018-03-01T01:43:17.546Z,51.03
2018-03-01T01:45:45.035Z,51.30
2018-03-01T01:48:12.495Z,51.95
2018-03-01T01:50:51.771Z,51.15
2018-03-01T01:53:19.236Z,50.86
2018-03-01T01:55:46.718Z,50.90
2018-03-01T01:58:14.187Z,50.59
2018-03-01T02:00:41.671Z,51.03
2018-03-01T02:03:09.126Z,51.56
2018-03-01T02:05:36.619Z,51.13
2018-03-01T02:08:04.086Z,51.29
2018-03-01T02:10:31.576Z,51.25
2018-03-01T02:12:59.051Z,51.38
2018-03-01T02:15:26.540Z,50.70
2018-03-01T02:17:54.008Z,51.04
2018-03-01T02:20:24.890Z,51.24
2018-03-01T02:23:00.518Z,51.03
2018-03-01T02:25:28.003Z,51.64
2018-03-01T02:27:55.540Z,51.54
2018-03-01T02:30:26.836Z,52.27
2018-03-01T02:32:54.332Z,51.72
2018-03-01T02:35:21.792Z,51.56
2018-03-01T02:37:49.293Z,51.67
2018-03-01T02:40:16.767Z,51.94
2018-03-01T02:42:44.274Z,51.96
2018-03-01T02:45:11.730Z,51.98
2018-03-01T02:47:39.232Z,51.96
2018-03-01T02:50:06.796Z,52.04
2018-03-01T02:52:34.288Z,51.87
2018-03-01T02:55:01.752Z,51.52
2018-03-01T02:57:29.237Z,51.67
2018-03-01T02:59:56.707Z,51.65
2018-03-01T03:02:24.223Z,51.98
2018-03-01T03:04:51.768Z,52.32
2018-03-01T03:07:19.253Z,52.09
2018-03-01T03:09:46.734Z,52.13
2018-03-01T03:12:14.211Z,52.07
2018-03-01T03:14:41.670Z,52.05
2018-03-01T03:17:09.177Z,51.71
2018-03-01T03:19:36.652Z,51.90
2018-03-01T03:22:04.145Z,52.06
2018-03-01T03:24:31.616Z,51.77
2018-03-01T03:26:59.107Z,51.60
2018-03-01T03:29:26.566Z,51.94
2018-03-01T03:31:54.031Z,51.92
2018-03-01T03:34:21.519Z,51.56
2018-03-01T03:36:48.987Z,51.69
2018-03-01T03:39:16.471Z,51.72
2018-03-01T03:41:43.936Z,51.61
2018-03-01T03:44:11.418Z,51.67
2018-03-01T03:46:38.894Z,52.51
2018-03-01T03:49:06.439Z,52.14
2018-03-01T03:51:33.909Z,51.96
2018-03-01T03:54:01.432Z,52.23
2018-03-01T03:56:28.893Z,51.70
2018-03-01T03:58:56.375Z,53.36
2018-03-01T04:01:23.844Z,52.06
2018-03-01T04:03:51.325Z,51.74
2018-03-01T04:06:18.847Z,52.15
2018-03-01T04:08:46.336Z,52.43
2018-03-01T04:11:13.812Z,52.28
2018-03-01T04:13:41.325Z,52.54
2018-03-01T04:16:08.788Z,52.62
2018-03-01T04:18:36.279Z,52.15
2018-03-01T04:21:03.749Z,52.58
2018-03-01T04:23:31.235Z,52.23
2018-03-01T04:25:58.703Z,52.59
2018-03-01T04:28:26.199Z,52.66
2018-03-01T04:30:53.663Z,53.34
2018-03-01T04:33:21.118Z,52.45
2018-03-01T04:35:48.611Z,52.70
2018-03-01T04:38:16.076Z,52.60
2018-03-01T04:40:43.561Z,52.61
2018-03-01T04:43:11.029Z,52.16
2018-03-01T04:45:38.507Z,52.34
2018-03-01T04:48:05.973Z,52.77
2018-03-01T04:50:33.455Z,52.58
2018-03-01T04:53:00.919Z,52.66
2018-03-01T04:55:28.439Z,52.85
2018-03-01T04:57:55.915Z,52.61
2018-03-01T05:00:23.403Z,52.70
2018-03-01T05:02:50.871Z,53.15
2018-03-01T05:05:18.383Z,53.32
2018-03-01T05:07:45.845Z,53.15
2018-03-01T05:10:13.327Z,53.35
2018-03-01T05:12:40.801Z,52.94
2018-03-01T05:15:08.301Z,53.09
2018-03-01T05:17:35.813Z,53.23
2018-03-01T05:20:03.304Z,53.11
2018-03-01T05:22:30.785Z,53.45
2018-03-01T05:24:59.693Z,53.78
2018-03-01T05:27:27.159Z,53.94
2018-03-01T05:29:54.647Z,53.42
2018-03-01T05:32:22.116Z,53.61
2018-03-01T05:34:49.611Z,53.29
2018-03-01T05:37:17.112Z,53.78
2018-03-01T05:39:44.580Z,53.46
2018-03-01T05:42:12.071Z,53.85
2018-03-01T05:44:39.531Z,53.65
2018-03-01T05:47:07.023Z,53.93
2018-03-01T05:49:34.479Z,53.87
2018-03-01T05:52:01.963Z,53.55
2018-03-01T05:54:29.431Z,53.56
2018-03-01T05:56:56.960Z,53.31
2018-03-01T05:59:24.422Z,53.33
2018-03-01T06:01:51.920Z,53.25
2018-03-01T06:04:19.384Z,53.40
2018-03-01T06:06:46.867Z,53.20
2018-03-01T06:09:14.335Z,53.49
2018-03-01T06:11:42.299Z,52.94
2018-03-01T06:14:09.763Z,52.76
2018-03-01T06:16:37.592Z,52.87
2018-03-01T06:19:05.060Z,53.08
2018-03-01T06:21:33.336Z,52.88
2018-03-01T06:24:00.809Z,52.49
2018-03-01T06:26:28.301Z,52.48
2018-03-01T06:28:55.767Z,52.41
2018-03-01T06:31:23.284Z,52.23
2018-03-01T06:33:50.776Z,52.51
2018-03-01T06:36:18.235Z,52.16
2018-03-01T06:38:45.724Z,51.76
2018-03-01T06:41:13.194Z,52.71
2018-03-01T06:43:40.676Z,51.65
2018-03-01T06:46:08.133Z,51.57
2018-03-01T06:48:35.660Z,51.25
2018-03-01T06:51:03.123Z,51.26
2018-03-01T06:53:30.611Z,51.11
2018-03-01T06:55:58.100Z,50.87
2018-03-01T06:58:25.610Z,50.77
2018-03-01T07:00:53.087Z,50.85
2018-03-01T07:03:20.571Z,50.60
2018-03-01T07:05:48.069Z,50.51
2018-03-01T07:08:15.540Z,50.44
2018-03-01T07:10:43.012Z,50.19
2018-03-01T07:13:10.491Z,49.95
2018-03-01T07:15:37.951Z,50.31
2018-03-01T07:18:05.440Z,49.44
2018-03-01T07:20:32.903Z,49.39
2018-03-01T07:23:00.400Z,49.49
2018-03-01T07:25:27.900Z,49.38
2018-03-01T07:27:55.402Z,49.61
2018-03-01T07:30:22.876Z,48.94
2018-03-01T07:32:50.359Z,48.98
2018-03-01T07:35:17.825Z,48.64
2018-03-01T07:37:45.310Z,48.46
2018-03-01T07:40:12.860Z,48.12
2018-03-01T07:42:41.220Z,48.32
2018-03-01T07:45:08.700Z,48.09
2018-03-01T07:47:36.199Z,47.22
2018-03-01T07:50:03.663Z,47.19
2018-03-01T07:52:31.129Z,47.23
2018-03-01T07:54:58.607Z,46.87
2018-03-01T07:57:26.085Z,46.85
2018-03-01T07:59:53.566Z,46.89
2018-03-01T08:02:21.037Z,46.94
2018-03-01T08:04:48.528Z,46.67
2018-03-01T08:07:16.000Z,46.63
2018-03-01T08:09:43.495Z,47.05
2018-03-01T08:12:10.961Z,47.16
2018-03-01T08:14:38.439Z,46.58
2018-03-01T08:17:05.915Z,46.43
2018-03-01T08:19:34.036Z,46.54
2018-03-01T08:22:01.508Z,46.47
2018-03-01T08:24:29.000Z,46.22
2018-03-01T08:26:56.476Z,46.37
2018-03-01T08:29:23.987Z,45.92
2018-03-01T08:31:51.455Z,45.25
2018-03-01T08:34:18.954Z,44.99
2018-03-01T08:36:46.418Z,45.09
2018-03-01T08:39:14.136Z,44.29
2018-03-01T08:41:41.617Z,43.59
2018-03-01T08:44:09.104Z,43.80
2018-03-01T08:46:36.598Z,42.88
2018-03-01T08:49:04.092Z,42.58
2018-03-01T08:51:31.599Z,42.08
2018-03-01T08:53:59.074Z,42.94
2018-03-01T08:56:26.579Z,41.65
2018-03-01T08:58:54.074Z,43.25
2018-03-01T09:01:21.577Z,40.92
2018-03-01T09:03:49.067Z,42.50
2018-03-01T09:06:16.566Z,41.39
2018-03-01T09:08:44.052Z,40.80
2018-03-01T09:11:11.528Z,40.55
2018-03-01T09:13:39.024Z,40.25
2018-03-01T09:16:06.505Z,40.55
2018-03-01T09:18:33.964Z,42.11
2018-03-01T09:21:01.448Z,40.54
2018-03-01T09:23:28.903Z,40.34
2018-03-01T09:25:56.387Z,40.32
2018-03-01T09:28:23.856Z,40.73
2018-03-01T09:30:51.341Z,40.66
2018-03-01T09:33:18.808Z,40.12
2018-03-01T09:35:46.297Z,39.52
2018-03-01T09:38:13.767Z,39.89
2018-03-01T09:40:41.256Z,39.11
2018-03-01T09:43:08.723Z,38.88
2018-03-01T09:45:36.212Z,39.21
2018-03-01T09:48:03.683Z,39.35
2018-03-01T09:50:32.115Z,38.80
2018-03-01T09:52:59.581Z,39.54
2018-03-01T09:55:27.068Z,38.97
2018-03-01T09:57:54.535Z,38.86
2018-03-01T10:00:22.028Z,38.65
2018-03-01T10:02:49.492Z,38.58
2018-03-01T10:05:16.978Z,38.51
2018-03-01T10:07:44.448Z,38.57
2018-03-01T10:10:11.970Z,38.22
2018-03-01T10:12:39.430Z,37.94
2018-03-01T10:15:06.915Z,37.75
2018-03-01T10:17:34.381Z,37.20
2018-03-01T10:20:01.865Z,37.37
2018-03-01T10:22:29.326Z,36.99
2018-03-01T10:24:56.836Z,37.79
2018-03-01T10:27:27.172Z,36.61
2018-03-01T10:29:54.656Z,37.07
2018-03-01T10:32:22.123Z,36.99
2018-03-01T10:34:49.628Z,38.98
2018-03-01T10:37:17.083Z,37.18
2018-03-01T10:39:44.553Z,36.98
2018-03-01T10:42:12.039Z,37.96
2018-03-01T10:44:39.499Z,36.87
2018-03-01T10:47:12.667Z,37.30
2018-03-01T10:49:40.141Z,36.71
2018-03-01T10:52:07.619Z,37.05
2018-03-01T10:54:35.088Z,37.14
2018-03-01T10:57:02.603Z,36.92
2018-03-01T10:59:30.089Z,36.76
2018-03-01T11:02:00.114Z,36.99
2018-03-01T11:04:27.592Z,36.37
2018-03-01T11:06:55.075Z,36.43
2018-03-01T11:09:22.539Z,36.71
2018-03-01T11:11:50.011Z,36.32
2018-03-01T11:14:17.483Z,36.61
2018-03-01T11:16:44.957Z,38.52
2018-03-01T11:19:12.411Z,37.71
2018-03-01T11:21:39.916Z,36.26
2018-03-01T11:24:07.380Z,36.31
2018-03-01T11:26:34.847Z,36.11
2018-03-01T11:29:02.296Z,36.00
2018-03-01T11:31:29.771Z,36.14
2018-03-01T11:33:57.231Z,36.89
2018-03-01T11:36:24.704Z,36.59
2018-03-01T11:38:52.158Z,36.04
2018-03-01T11:41:19.635Z,35.88
2018-03-01T11:43:47.087Z,35.59
2018-03-01T11:46:14.562Z,35.32
2018-03-01T11:48:42.015Z,35.55
2018-03-01T11:51:09.492Z,34.58
2018-03-01T11:53:36.952Z,35.01
2018-03-01T11:56:04.428Z,34.14
2018-03-01T11:58:31.878Z,34.76
2018-03-01T12:00:59.561Z,34.04
2018-03-01T12:03:27.031Z,34.29
2018-03-01T12:05:54.491Z,33.82
2018-03-01T12:08:21.965Z,34.07
2018-03-01T12:10:49.423Z,33.74
2018-03-01T12:13:16.916Z,34.11
2018-03-01T12:15:44.385Z,35.29
2018-03-01T12:18:11.864Z,34.29
2018-03-01T12:20:39.340Z,34.19
2018-03-01T12:23:06.824Z,33.36
2018-03-01T12:25:34.279Z,33.47
2018-03-01T12:28:01.760Z,33.06
2018-03-01T12:30:29.212Z,32.87
2018-03-01T12:32:56.696Z,32.71
2018-03-01T12:35:24.152Z,32.54
2018-03-01T12:37:51.636Z,32.50
2018-03-01T12:40:19.102Z,32.20
2018-03-01T12:42:46.585Z,32.54
2018-03-01T12:45:14.052Z,32.20
2018-03-01T12:47:41.528Z,32.28
2018-03-01T12:50:08.992Z,32.08
2018-03-01T12:52:36.478Z,31.80
2018-03-01T12:55:03.940Z,31.83
2018-03-01T12:57:31.436Z,32.01
2018-03-01T12:59:58.892Z,31.87
2018-03-01T13:02:26.366Z,31.95
2018-03-01T13:04:56.317Z,31.95
2018-03-01T13:07:23.792Z,31.83
2018-03-01T13:09:51.263Z,32.79
2018-03-01T13:12:18.744Z,31.93
2018-03-01T13:14:46.211Z,31.33
2018-03-01T13:17:13.707Z,31.52
2018-03-01T13:19:41.169Z,31.38
2018-03-01T13:22:08.663Z,31.00
2018-03-01T13:24:36.139Z,30.87
2018-03-01T13:27:03.591Z,30.39
2018-03-01T13:29:31.077Z,30.42
2018-03-01T13:31:59.279Z,30.73
2018-03-01T13:34:31.516Z,29.37
2018-03-01T13:36:59.018Z,29.16
2018-03-01T13:39:26.472Z,29.69
2018-03-01T13:41:57.528Z,27.94
2018-03-01T13:44:25.034Z,27.69
2018-03-01T13:46:54.021Z,27.63
2018-03-01T13:49:21.495Z,27.16
2018-03-01T13:51:48.966Z,27.09
2018-03-01T13:54:16.462Z,26.32
2018-03-01T13:56:44.841Z,25.83
2018-03-01T13:59:12.324Z,26.05
2018-03-01T14:01:39.803Z,25.53
2018-03-01T14:04:07.283Z,25.32
2018-03-01T14:06:34.759Z,24.83
2018-03-01T14:09:02.232Z,25.82
2018-03-01T14:11:29.699Z,24.10
2018-03-01T14:13:58.395Z,24.36
2018-03-01T14:16:25.859Z,24.00
2018-03-01T14:18:59.000Z,24.48
2018-03-01T14:21:36.379Z,24.23
2018-03-01T14:24:05.270Z,24.30
2018-03-01T14:26:33.254Z,23.94
2018-03-01T14:29:06.192Z,24.00
2018-03-01T14:31:33.643Z,24.10
2018-03-01T14:34:01.128Z,25.17
2018-03-01T14:36:28.589Z,27.21
2018-03-01T14:38:56.068Z,26.62
2018-03-01T14:41:23.534Z,29.06
2018-03-01T14:43:51.024Z,28.59
2018-03-01T14:46:18.501Z,26.80
2018-03-01T14:48:46.009Z,27.81
2018-03-01T14:51:13.463Z,29.09
2018-03-01T14:53:41.458Z,27.42
2018-03-01T14:56:08.944Z,26.76
2018-03-01T14:58:36.471Z,26.59
2018-03-01T15:01:03.957Z,25.90
2018-03-01T15:03:31.463Z,25.93
2018-03-01T15:05:58.931Z,27.09
2018-03-01T15:08:26.395Z,27.59
2018-03-01T15:10:53.888Z,26.93
2018-03-01T15:13:21.367Z,26.43
2018-03-01T15:15:48.848Z,26.35
2018-03-01T15:18:16.311Z,26.19
2018-03-01T15:20:43.827Z,27.70
2018-03-01T15:23:11.299Z,27.38
2018-03-01T15:25:38.791Z,27.66
2018-03-01T15:28:06.300Z,27.84
2018-03-01T15:30:33.845Z,28.05
2018-03-01T15:33:01.327Z,28.92
2018-03-01T15:35:28.804Z,28.69
2018-03-01T15:37:56.263Z,28.52
2018-03-01T15:40:23.764Z,30.61
2018-03-01T15:42:51.231Z,29.44
2018-03-01T15:45:18.714Z,29.30
2018-03-01T15:47:46.180Z,29.89
2018-03-01T15:50:13.683Z,31.25
2018-03-01T15:52:41.155Z,31.42
2018-03-01T15:55:08.635Z,31.40
2018-03-01T15:57:36.098Z,31.97
2018-03-01T16:00:03.579Z,32.93
2018-03-01T16:02:31.099Z,33.15
2018-03-01T16:04:58.583Z,33.32
2018-03-01T16:07:26.050Z,33.31
2018-03-01T16:09:53.527Z,31.73
2018-03-01T16:12:20.999Z,32.10
2018-03-01T16:14:48.488Z,32.82
2018-03-01T16:17:15.960Z,32.88
2018-03-01T16:19:43.444Z,33.88
2018-03-01T16:22:10.904Z,33.95
2018-03-01T16:24:38.379Z,34.69
2018-03-01T16:27:05.843Z,35.93
2018-03-01T16:29:33.328Z,35.27
2018-03-01T16:32:00.814Z,36.04
2018-03-01T16:34:28.271Z,35.72
2018-03-01T16:36:55.760Z,36.36
2018-03-01T16:39:23.227Z,37.13
2018-03-01T16:41:50.713Z,37.07
2018-03-01T16:44:18.172Z,37.33
2018-03-01T16:46:45.655Z,37.60
2018-03-01T16:49:14.024Z,38.14
2018-03-01T16:51:42.352Z,38.38
2018-03-01T16:54:09.840Z,39.52
2018-03-01T16:56:37.316Z,38.55
2018-03-01T16:59:04.776Z,39.09
2018-03-01T17:01:32.255Z,39.15
2018-03-01T17:03:59.707Z,39.32
2018-03-01T17:06:27.188Z,39.70
2018-03-01T17:08:54.670Z,40.20
2018-03-01T17:11:22.167Z,39.99
2018-03-01T17:13:55.980Z,39.76
2018-03-01T17:16:23.510Z,40.77
2018-03-01T17:18:50.978Z,40.35
2018-03-01T17:21:18.464Z,40.42
2018-03-01T17:23:45.940Z,40.56
2018-03-01T17:26:13.423Z,40.91
2018-03-01T17:28:41.671Z,41.08
2018-03-01T17:31:09.158Z,40.61
2018-03-01T17:33:36.632Z,40.77
2018-03-01T17:36:04.117Z,40.92
2018-03-01T17:38:31.585Z,41.02
2018-03-01T17:41:02.806Z,41.91
2018-03-01T17:43:33.324Z,41.24
2018-03-01T17:46:00.832Z,41.83
2018-03-01T17:48:28.311Z,42.06
2018-03-01T17:50:55.839Z,43.03
2018-03-01T17:53:23.315Z,42.15
2018-03-01T17:55:50.805Z,42.68
2018-03-01T17:58:18.267Z,42.13
2018-03-01T18:00:45.732Z,42.92
2018-03-01T18:03:13.213Z,42.94
2018-03-01T18:05:40.676Z,43.20
2018-03-01T18:08:08.168Z,43.12
2018-03-01T18:10:35.637Z,43.13
2018-03-01T18:13:03.119Z,43.40
2018-03-01T18:15:30.588Z,43.97
2018-03-01T18:17:58.063Z,44.02
2018-03-01T18:20:25.532Z,44.24
2018-03-01T18:22:53.041Z,44.21
2018-03-01T18:25:20.509Z,44.18
2018-03-01T18:27:47.999Z,44.61
2018-03-01T18:30:15.465Z,44.46
2018-03-01T18:32:42.952Z,44.93
2018-03-01T18:35:10.416Z,45.15
2018-03-01T18:37:37.916Z,45.00
2018-03-01T18:40:05.390Z,44.75
2018-03-01T18:42:32.883Z,45.53
2018-03-01T18:45:00.347Z,45.31
2018-03-01T18:47:27.840Z,45.38
2018-03-01T18:49:55.307Z,45.46
2018-03-01T18:52:22.787Z,45.25
2018-03-01T18:54:50.256Z,46.58
2018-03-01T18:57:17.743Z,44.97
2018-03-01T18:59:45.207Z,45.06
2018-03-01T19:02:12.696Z,46.18
2018-03-01T19:04:40.159Z,46.03
2018-03-01T19:07:07.657Z,45.66
2018-03-01T19:09:35.125Z,45.70
2018-03-01T19:12:03.679Z,45.48
2018-03-01T19:14:32.468Z,46.55
2018-03-01T19:17:01.484Z,46.45
2018-03-01T19:19:32.529Z,46.35
2018-03-01T19:22:02.146Z,46.00
2018-03-01T19:24:29.620Z,46.66
2018-03-01T19:26:57.082Z,45.90
2018-03-01T19:29:24.802Z,46.04
2018-03-01T19:31:52.293Z,45.93
2018-03-01T19:34:23.627Z,45.75
2018-03-01T19:36:51.148Z,47.22
2018-03-01T19:39:18.663Z,47.03
2018-03-01T19:41:46.148Z,48.24
2018-03-01T19:44:13.673Z,47.48
2018-03-01T19:46:41.445Z,47.74
2018-03-01T19:49:08.972Z,47.40
2018-03-01T19:51:37.108Z,46.80
2018-03-01T19:54:04.977Z,47.17
2018-03-01T19:59:24.984Z,47.77
2018-03-01T20:01:52.452Z,47.55
2018-03-01T20:04:19.963Z,47.79
2018-03-01T20:06:47.455Z,48.06
2018-03-01T20:09:19.314Z,48.52
2018-03-01T20:11:50.626Z,47.89
2018-03-01T20:14:18.988Z,48.09
2018-03-01T20:16:46.519Z,48.46
2018-03-01T20:19:14.028Z,48.55
2018-03-01T20:21:41.580Z,49.02
2018-03-01T20:24:09.105Z,50.10
2018-03-01T20:26:36.612Z,49.69
2018-03-01T20:29:04.132Z,48.22
2018-03-01T20:31:31.629Z,49.56
2018-03-01T20:33:59.170Z,48.79
2018-03-01T20:36:26.712Z,48.73
2018-03-01T20:38:54.276Z,47.75
2018-03-01T20:41:23.261Z,48.29
2018-03-01T20:43:50.793Z,48.06
2018-03-01T20:46:18.305Z,48.08
2018-03-01T20:48:51.288Z,49.54
2018-03-01T20:51:18.931Z,47.80
2018-03-01T20:53:46.415Z,48.04
2018-03-01T20:56:19.169Z,47.94
2018-03-01T20:58:46.791Z,48.07
2018-03-01T21:01:14.588Z,48.12
2018-03-01T21:03:42.166Z,47.31
2018-03-01T21:06:09.700Z,47.16
2018-03-01T21:08:37.222Z,47.46
2018-03-01T21:11:04.780Z,47.64
2018-03-01T21:13:32.321Z,46.93
2018-03-01T21:15:59.964Z,46.95
2018-03-01T21:18:27.479Z,46.56
2018-03-01T21:20:56.979Z,46.37
2018-03-01T21:23:24.487Z,46.81
2018-03-01T21:25:52.013Z,46.75
2018-03-01T21:28:19.515Z,46.39
2018-03-01T21:30:47.020Z,46.43
2018-03-01T21:33:14.608Z,45.97
2018-03-01T21:35:42.213Z,46.48
2018-03-01T21:38:09.874Z,46.56
2018-03-01T21:40:37.416Z,46.36
2018-03-01T21:43:04.926Z,46.64
2018-03-01T21:45:32.444Z,46.56
2018-03-01T21:47:59.953Z,46.14
2018-03-01T21:50:27.479Z,46.04
2018-03-01T21:52:55.239Z,46.27
2018-03-01T21:55:22.789Z,46.94
2018-03-01T21:57:50.304Z,46.41
2018-03-01T22:00:17.824Z,47.10
2018-03-01T22:02:45.320Z,46.67
2018-03-01T22:05:12.860Z,46.49
2018-03-01T22:07:40.336Z,46.59
2018-03-01T22:10:07.876Z,46.73
2018-03-01T22:12:35.438Z,46.55
2018-03-01T22:15:02.949Z,46.91
2018-03-01T22:17:30.496Z,46.78
2018-03-01T22:19:58.016Z,47.02
2018-03-01T22:22:25.520Z,47.22
2018-03-01T22:24:53.128Z,47.48
2018-03-01T22:27:20.700Z,46.90
2018-03-01T22:29:48.219Z,47.01
2018-03-01T22:32:15.725Z,47.55
2018-03-01T22:34:43.248Z,47.18
2018-03-01T22:37:10.738Z,47.11
2018-03-01T22:39:38.280Z,47.53
2018-03-01T22:42:05.825Z,46.92
2018-03-01T22:44:33.324Z,47.60
2018-03-01T22:47:00.828Z,47.24
2018-03-01T22:49:30.155Z,47.76
2018-03-01T22:51:57.682Z,47.35
2018-03-01T22:54:25.205Z,47.14
2018-03-01T22:56:52.737Z,47.14
2018-03-01T22:59:20.281Z,47.19
2018-03-01T23:01:47.814Z,46.65
2018-03-01T23:04:15.320Z,46.45
2018-03-01T23:06:42.836Z,46.40
2018-03-01T23:09:10.320Z,46.53
2018-03-01T23:11:37.873Z,46.84
2018-03-01T23:14:05.344Z,46.11
2018-03-01T23:16:32.873Z,46.35
2018-03-01T23:19:00.340Z,45.81
2018-03-01T23:21:27.819Z,46.19
2018-03-01T23:23:55.296Z,45.94
2018-03-01T23:26:22.782Z,45.91
2018-03-01T23:28:50.246Z,45.90
2018-03-01T23:31:17.727Z,45.62
2018-03-01T23:33:45.188Z,46.05
2018-03-01T23:36:12.668Z,45.30
2018-03-01T23:38:40.139Z,45.47
2018-03-01T23:41:07.619Z,45.82
2018-03-01T23:43:35.095Z,45.80
2018-03-01T23:46:02.589Z,45.63
2018-03-01T23:48:30.071Z,45.54
2018-03-01T23:50:57.559Z,45.81
2018-03-01T23:53:25.032Z,45.90
2018-03-01T23:55:52.539Z,46.34
2018-03-01T23:58:20.005Z,45.83
